Time;durP1;ratioP1;P1;durP2;ratioP2;P2;SDS_P1;SDS_P2;PMS_P1;PMS_P2;Temp;Humidity;BMP_temperature;BMP_pressure;BME280_temperature;BME280_humidity;BME280_pressure;Samples;Min_cycle;Max_cycle;Signal;HPM_P1;HPM_P2
2023/12/25 00:01:47;;;;;;;14.43;3.17;;;11.80;99.90;;;;;;5136934;27;20039;-68
2023/12/25 00:04:13;;;;;;;10.48;2.83;;;11.70;99.90;;;;;;5105080;28;20035;-68
2023/12/25 00:06:38;;;;;;;12.82;2.45;;;11.70;99.90;;;;;;5104118;28;20043;-68
2023/12/25 00:09:04;;;;;;;10.73;2.58;;;11.70;99.90;;;;;;5105036;28;20224;-68
2023/12/25 00:11:29;;;;;;;13.90;2.50;;;11.70;99.90;;;;;;5105733;28;20051;-68
2023/12/25 00:13:55;;;;;;;15.80;2.38;;;11.70;99.90;;;;;;5134106;27;20695;-68
2023/12/25 00:16:25;;;;;;;9.32;2.45;;;11.70;99.90;;;;;;5103290;28;20040;-68
2023/12/25 00:18:51;;;;;;;11.30;1.98;;;11.70;99.90;;;;;;5101406;28;20044;-68
2023/12/25 00:21:18;;;;;;;12.43;2.00;;;11.70;99.90;;;;;;5101434;28;20035;-68
2023/12/25 00:23:44;;;;;;;9.93;1.58;;;11.70;99.90;;;;;;5102827;28;20040;-68
2023/12/25 00:26:10;;;;;;;13.68;2.45;;;11.70;99.90;;;;;;5105842;27;20043;-68
2023/12/25 00:28:36;;;;;;;11.25;2.42;;;11.70;99.90;;;;;;5104504;28;20044;-68
2023/12/25 00:31:02;;;;;;;11.23;2.30;;;11.60;99.90;;;;;;5104582;28;21205;-68
2023/12/25 00:33:27;;;;;;;17.13;2.92;;;11.60;99.90;;;;;;5101981;28;20043;-68
2023/12/25 00:35:53;;;;;;;13.43;2.00;;;11.60;99.90;;;;;;5100933;28;20044;-68
2023/12/25 00:38:18;;;;;;;9.50;2.15;;;11.60;99.90;;;;;;5136168;27;20118;-68
2023/12/25 00:40:44;;;;;;;14.07;2.03;;;11.50;99.90;;;;;;5104090;27;20047;-68
2023/12/25 00:43:09;;;;;;;8.15;1.40;;;11.50;99.90;;;;;;5104829;28;20507;-68
2023/12/25 00:45:35;;;;;;;9.13;1.40;;;11.50;99.90;;;;;;5103626;28;20044;-68
2023/12/25 00:48:00;;;;;;;11.15;2.55;;;11.50;99.90;;;;;;5102567;28;20101;-68
2023/12/25 00:50:26;;;;;;;15.32;2.88;;;11.60;99.90;;;;;;5101459;28;20068;-68
2023/12/25 00:52:52;;;;;;;9.95;1.40;;;11.60;99.90;;;;;;5103262;27;20451;-68
2023/12/25 00:55:17;;;;;;;6.80;1.58;;;11.60;99.90;;;;;;5104025;28;20066;-68
2023/12/25 00:57:43;;;;;;;8.18;1.83;;;11.50;99.90;;;;;;5101686;28;20089;-68
2023/12/25 01:00:09;;;;;;;7.85;1.73;;;11.50;99.90;;;;;;5102432;27;20035;-68
2023/12/25 01:02:35;;;;;;;8.98;2.17;;;11.40;99.90;;;;;;5102883;28;20031;-68
2023/12/25 01:05:01;;;;;;;9.73;2.17;;;11.40;99.90;;;;;;5102249;28;20043;-68
2023/12/25 01:07:26;;;;;;;11.90;1.80;;;11.40;99.90;;;;;;5100321;28;20035;-68
2023/12/25 01:09:52;;;;;;;9.27;1.27;;;11.40;99.90;;;;;;5090924;28;20047;-68
2023/12/25 01:12:17;;;;;;;11.68;3.13;;;11.40;99.90;;;;;;5132264;27;20401;-68
2023/12/25 01:14:44;;;;;;;10.20;1.63;;;11.40;99.90;;;;;;5103177;27;20389;-68
2023/12/25 01:17:10;;;;;;;9.38;2.08;;;11.30;99.90;;;;;;5133139;27;20071;-68
2023/12/25 01:19:36;;;;;;;9.32;2.55;;;11.30;99.90;;;;;;5102980;28;20066;-67
2023/12/25 01:22:01;;;;;;;9.48;1.30;;;11.30;99.90;;;;;;5099876;28;20064;-68
2023/12/25 01:24:27;;;;;;;11.13;2.10;;;11.20;99.90;;;;;;5101055;28;20035;-68
2023/12/25 01:26:52;;;;;;;11.32;2.30;;;11.20;99.90;;;;;;5102657;28;20044;-68
2023/12/25 01:29:18;;;;;;;11.55;1.45;;;11.20;99.90;;;;;;5101808;28;20044;-68
2023/12/25 01:31:44;;;;;;;9.52;2.13;;;11.40;99.90;;;;;;5100548;28;20102;-68
2023/12/25 01:34:09;;;;;;;12.60;1.73;;;11.20;99.90;;;;;;5102261;28;20465;-67
2023/12/25 01:36:35;;;;;;;7.78;1.40;;;11.20;99.90;;;;;;5103248;28;20043;-68
2023/12/25 01:39:02;;;;;;;10.73;1.30;;;11.20;99.90;;;;;;5101521;28;20084;-68
2023/12/25 01:41:27;;;;;;;6.68;1.58;;;11.20;99.90;;;;;;5104722;28;20081;-68
2023/12/25 01:43:54;;;;;;;10.10;1.45;;;11.20;99.90;;;;;;5106512;28;20565;-68
2023/12/25 01:46:19;;;;;;;11.70;1.65;;;11.20;99.90;;;;;;5134479;27;20130;-67
2023/12/25 01:48:49;;;;;;;11.82;2.53;;;11.20;99.90;;;;;;5103769;28;20146;-68
2023/12/25 01:51:15;;;;;;;9.40;1.45;;;11.20;99.90;;;;;;5137075;27;20039;-68
2023/12/25 01:53:40;;;;;;;12.20;2.47;;;11.10;99.90;;;;;;5109443;27;20281;-68
2023/12/25 01:56:06;;;;;;;8.02;1.10;;;11.20;99.90;;;;;;5106993;27;20044;-68
2023/12/25 01:58:32;;;;;;;10.38;1.48;;;11.20;99.90;;;;;;5108214;28;20481;-68
2023/12/25 02:00:57;;;;;;;8.48;1.45;;;11.10;99.90;;;;;;5109468;28;20083;-68
2023/12/25 02:03:23;;;;;;;5.97;1.35;;;11.20;99.90;;;;;;5108713;28;20764;-68
2023/12/25 02:05:49;;;;;;;9.23;2.38;;;11.10;99.90;;;;;;5106353;28;20126;-68
2023/12/25 02:08:17;;;;;;;7.20;1.55;;;11.10;99.90;;;;;;5107181;27;20055;-68
2023/12/25 02:10:43;;;;;;;6.93;1.50;;;11.10;99.90;;;;;;5105050;27;20107;-68
2023/12/25 02:13:08;;;;;;;8.23;1.35;;;11.10;99.90;;;;;;5104341;27;20047;-68
2023/12/25 02:15:34;;;;;;;8.52;1.17;;;11.10;99.90;;;;;;5108856;27;20485;-68
2023/12/25 02:18:01;;;;;;;8.38;2.08;;;11.10;99.90;;;;;;5109494;27;20039;-68
2023/12/25 02:20:26;;;;;;;8.48;1.50;;;11.00;99.90;;;;;;5105838;27;20063;-68
2023/12/25 02:22:54;;;;;;;9.65;2.33;;;11.10;99.90;;;;;;5103951;28;20075;-68
2023/12/25 02:25:32;;;;;;;6.43;1.02;;;11.10;99.90;;;;;;5137466;27;20095;-68
2023/12/25 02:27:59;;;;;;;7.30;1.27;;;11.10;99.90;;;;;;5091835;28;20040;-68
2023/12/25 02:30:26;;;;;;;11.00;1.67;;;11.00;99.90;;;;;;5107288;27;20040;-68
2023/12/25 02:32:52;;;;;;;8.75;1.10;;;11.10;99.90;;;;;;5087360;28;20051;-68
2023/12/25 02:35:17;;;;;;;9.38;1.10;;;11.10;99.90;;;;;;5103152;28;20125;-68
2023/12/25 02:37:43;;;;;;;5.47;0.93;;;11.00;99.90;;;;;;5107072;28;20036;-68
2023/12/25 02:40:09;;;;;;;11.02;1.75;;;11.10;99.90;;;;;;5105424;27;20046;-68
2023/12/25 02:42:35;;;;;;;6.60;0.93;;;11.00;99.90;;;;;;5108192;28;20032;-68
2023/12/25 02:45:00;;;;;;;5.60;0.75;;;11.10;99.90;;;;;;5107256;28;20040;-68
2023/12/25 02:47:26;;;;;;;9.25;1.35;;;11.20;99.90;;;;;;5105655;27;20375;-68
2023/12/25 02:49:52;;;;;;;7.75;0.80;;;11.20;99.90;;;;;;5135782;27;20035;-67
2023/12/25 02:52:18;;;;;;;7.07;1.17;;;11.10;99.90;;;;;;5104195;28;20043;-68
2023/12/25 02:54:44;;;;;;;6.05;1.42;;;11.10;99.90;;;;;;5106265;28;20043;-68
2023/12/25 02:57:09;;;;;;;6.97;1.27;;;11.00;99.90;;;;;;5105247;27;20482;-68
2023/12/25 02:59:35;;;;;;;7.88;1.70;;;11.00;99.90;;;;;;5103975;28;20047;-68
2023/12/25 03:02:01;;;;;;;7.57;1.42;;;11.00;99.90;;;;;;5136148;27;20473;-68
2023/12/25 03:04:27;;;;;;;5.93;1.17;;;11.00;99.90;;;;;;5106006;28;20138;-68
2023/12/25 03:06:52;;;;;;;7.75;0.85;;;11.00;99.90;;;;;;5105526;27;20054;-67
2023/12/25 03:09:18;;;;;;;6.00;1.17;;;11.00;99.90;;;;;;5134851;27;20051;-68
2023/12/25 03:11:45;;;;;;;9.38;1.15;;;10.90;99.90;;;;;;5107556;28;20051;-68
2023/12/25 03:14:10;;;;;;;7.82;1.10;;;11.00;99.90;;;;;;5105940;28;20039;-68
2023/12/25 03:16:36;;;;;;;7.68;1.17;;;11.00;99.90;;;;;;5104141;28;20040;-68
2023/12/25 03:19:02;;;;;;;7.45;1.65;;;11.00;99.90;;;;;;5102922;28;20062;-68
2023/12/25 03:21:27;;;;;;;9.10;0.93;;;11.10;99.90;;;;;;5136256;27;20032;-67
2023/12/25 03:23:53;;;;;;;8.00;1.70;;;11.00;99.90;;;;;;5106082;27;20036;-68
2023/12/25 03:26:19;;;;;;;9.75;1.40;;;11.00;99.90;;;;;;5104835;28;20071;-68
2023/12/25 03:28:44;;;;;;;9.50;1.50;;;11.00;99.90;;;;;;5104732;28;20508;-68
2023/12/25 03:31:10;;;;;;;6.50;2.03;;;10.90;99.90;;;;;;5104813;27;20118;-68
2023/12/25 03:33:36;;;;;;;8.68;1.40;;;10.90;99.90;;;;;;5107621;27;20607;-68
2023/12/25 03:36:03;;;;;;;6.97;1.30;;;10.90;99.90;;;;;;5104780;27;20087;-67
2023/12/25 03:38:28;;;;;;;4.13;1.10;;;10.90;99.90;;;;;;5102738;28;20039;-68
2023/12/25 03:40:54;;;;;;;7.13;0.88;;;10.90;99.90;;;;;;5109670;27;20035;-68
2023/12/25 03:43:20;;;;;;;7.70;1.35;;;10.90;99.90;;;;;;5107916;27;20122;-68
2023/12/25 03:45:45;;;;;;;5.20;1.15;;;10.90;99.90;;;;;;5136888;27;20071;-67
2023/12/25 03:48:11;;;;;;;5.43;0.80;;;10.90;99.90;;;;;;5105436;27;20043;-68
2023/12/25 03:50:37;;;;;;;8.35;0.80;;;10.90;99.90;;;;;;5105683;27;20035;-68
2023/12/25 03:53:02;;;;;;;8.20;1.30;;;11.00;99.90;;;;;;5105825;27;20538;-68
2023/12/25 03:55:28;;;;;;;5.10;1.10;;;10.90;99.90;;;;;;5109325;27;20043;-68
2023/12/25 03:57:54;;;;;;;5.78;0.90;;;10.90;99.90;;;;;;5134624;27;20032;-68
2023/12/25 04:00:20;;;;;;;7.78;1.35;;;11.20;99.90;;;;;;5136387;27;20086;-67
2023/12/25 04:02:45;;;;;;;6.07;0.85;;;10.90;99.90;;;;;;5134266;27;20075;-68
2023/12/25 04:05:11;;;;;;;8.98;1.20;;;11.00;99.90;;;;;;5107317;27;20063;-68
2023/12/25 04:07:37;;;;;;;8.95;0.90;;;10.90;99.90;;;;;;5104120;28;20062;-68
2023/12/25 04:10:04;;;;;;;8.15;1.70;;;10.90;99.90;;;;;;5104771;27;20569;-67
2023/12/25 04:12:29;;;;;;;7.75;1.00;;;10.90;99.90;;;;;;5108691;27;20059;-68
2023/12/25 04:14:55;;;;;;;8.02;1.08;;;10.90;99.90;;;;;;5104429;27;20032;-68
2023/12/25 04:17:21;;;;;;;8.23;0.85;;;10.90;99.90;;;;;;5105553;27;20134;-68
2023/12/25 04:19:46;;;;;;;6.38;1.02;;;10.90;99.90;;;;;;5106278;27;20490;-68
2023/12/25 04:22:13;;;;;;;8.30;0.80;;;10.90;99.90;;;;;;5105520;27;20032;-67
2023/12/25 04:24:39;;;;;;;5.95;0.95;;;10.90;99.90;;;;;;5104094;27;20047;-68
2023/12/25 04:27:04;;;;;;;8.55;1.20;;;10.90;99.90;;;;;;5106600;27;20088;-68
2023/12/25 04:29:30;;;;;;;9.00;1.15;;;10.90;99.90;;;;;;5134534;27;20048;-68
2023/12/25 04:31:56;;;;;;;7.10;0.88;;;10.90;99.90;;;;;;5133637;27;20077;-68
2023/12/25 04:34:21;;;;;;;5.72;0.60;;;10.80;99.90;;;;;;5105392;27;20092;-68
2023/12/25 04:36:47;;;;;;;3.00;0.85;;;10.90;99.90;;;;;;5105800;27;20144;-68
2023/12/25 04:39:12;;;;;;;7.90;0.90;;;10.90;99.90;;;;;;5103148;27;20043;-67
2023/12/25 04:41:38;;;;;;;8.23;1.00;;;10.90;99.90;;;;;;5104438;27;20051;-68
2023/12/25 04:44:03;;;;;;;7.55;0.80;;;10.90;99.90;;;;;;5103667;28;20054;-68
2023/12/25 04:46:29;;;;;;;4.40;0.90;;;10.90;99.90;;;;;;5104911;28;20035;-68
2023/12/25 04:48:55;;;;;;;6.65;1.20;;;10.90;99.90;;;;;;5105658;28;20031;-67
2023/12/25 04:51:20;;;;;;;6.93;1.00;;;10.90;99.90;;;;;;5106093;27;20048;-68
2023/12/25 04:53:46;;;;;;;6.10;0.90;;;11.00;99.90;;;;;;5106755;27;20124;-68
2023/12/25 04:56:11;;;;;;;4.28;0.73;;;10.90;99.90;;;;;;5102435;28;20421;-68
2023/12/25 04:58:38;;;;;;;5.68;0.73;;;10.90;99.90;;;;;;5132216;27;20271;-68
2023/12/25 05:01:06;;;;;;;4.70;1.20;;;11.00;99.90;;;;;;5103285;27;20116;-68
2023/12/25 05:03:32;;;;;;;5.60;0.60;;;11.00;99.90;;;;;;5098315;28;20039;-68
2023/12/25 05:05:59;;;;;;;4.78;0.70;;;10.90;99.90;;;;;;5106377;27;20615;-68
2023/12/25 05:08:24;;;;;;;5.47;0.70;;;10.90;99.90;;;;;;5104554;27;20143;-68
2023/12/25 05:10:51;;;;;;;7.20;1.20;;;10.90;99.90;;;;;;5103859;28;20207;-68
2023/12/25 05:13:16;;;;;;;7.95;1.00;;;11.00;99.90;;;;;;5106235;27;20443;-68
2023/12/25 05:15:42;;;;;;;6.00;0.70;;;10.90;99.90;;;;;;5106940;27;20040;-68
2023/12/25 05:18:07;;;;;;;7.47;1.00;;;11.00;99.90;;;;;;5103574;28;20035;-67
2023/12/25 05:20:33;;;;;;;5.20;0.95;;;11.00;99.90;;;;;;5104884;28;20039;-68
2023/12/25 05:22:59;;;;;;;4.10;0.77;;;11.00;99.90;;;;;;5131344;27;20031;-68
2023/12/25 05:25:24;;;;;;;7.78;0.80;;;10.90;99.90;;;;;;5103417;28;20047;-68
2023/12/25 05:27:50;;;;;;;3.95;0.65;;;11.00;99.90;;;;;;5103180;28;20044;-68
2023/12/25 05:30:15;;;;;;;6.43;1.15;;;11.00;99.90;;;;;;5104423;28;20097;-68
2023/12/25 05:32:41;;;;;;;8.57;1.50;;;11.00;99.90;;;;;;5088349;28;20393;-68
2023/12/25 05:35:07;;;;;;;4.15;0.88;;;11.00;99.90;;;;;;5087840;28;20390;-68
2023/12/25 05:37:33;;;;;;;5.45;0.60;;;10.90;99.90;;;;;;5106026;28;20449;-68
2023/12/25 05:40:00;;;;;;;7.50;0.75;;;11.00;99.90;;;;;;5105292;28;20040;-68
2023/12/25 05:42:25;;;;;;;9.90;1.50;;;11.00;99.90;;;;;;5104035;28;20481;-68
2023/12/25 05:44:51;;;;;;;5.68;1.00;;;11.30;99.90;;;;;;5104298;28;20051;-68
2023/12/25 05:47:16;;;;;;;7.80;0.90;;;10.90;99.90;;;;;;5104961;28;20027;-67
2023/12/25 05:49:42;;;;;;;7.15;1.20;;;10.90;99.90;;;;;;5104230;28;20044;-67
2023/12/25 05:52:08;;;;;;;7.22;1.42;;;10.90;99.90;;;;;;5105564;28;20047;-67
2023/12/25 05:54:33;;;;;;;6.55;1.15;;;10.90;99.90;;;;;;5103936;28;20032;-68
2023/12/25 05:56:59;;;;;;;5.22;0.82;;;10.90;99.90;;;;;;5101498;28;20044;-68
2023/12/25 05:59:25;;;;;;;8.82;1.05;;;10.90;99.90;;;;;;5103319;28;20054;-68
2023/12/25 06:01:51;;;;;;;9.45;1.40;;;10.90;99.90;;;;;;5104398;28;20039;-67
2023/12/25 06:04:17;;;;;;;7.43;0.93;;;10.90;99.90;;;;;;5104311;28;20050;-68
2023/12/25 06:06:44;;;;;;;7.47;0.73;;;10.90;99.90;;;;;;5106055;28;20409;-68
2023/12/25 06:09:11;;;;;;;12.80;2.20;;;10.90;99.90;;;;;;5104063;28;20050;-68
2023/12/25 06:11:38;;;;;;;6.88;1.55;;;10.90;99.90;;;;;;5104677;28;20044;-67
2023/12/25 06:14:04;;;;;;;5.78;1.23;;;10.80;99.90;;;;;;5105221;28;20437;-67
2023/12/25 06:16:30;;;;;;;5.65;1.30;;;10.80;99.90;;;;;;5106245;28;20059;-67
2023/12/25 06:18:55;;;;;;;7.68;1.10;;;10.80;99.90;;;;;;5103281;28;20028;-68
2023/12/25 06:21:21;;;;;;;5.43;0.70;;;10.80;99.90;;;;;;5102239;28;20035;-67
2023/12/25 06:23:47;;;;;;;7.10;1.10;;;10.70;99.90;;;;;;5104787;27;20497;-67
2023/12/25 06:26:12;;;;;;;5.68;1.33;;;10.80;99.90;;;;;;5101380;28;20130;-68
2023/12/25 06:28:38;;;;;;;5.82;0.88;;;10.70;99.90;;;;;;5102473;28;20051;-67
2023/12/25 06:31:04;;;;;;;6.97;0.90;;;10.60;99.90;;;;;;5086191;28;20036;-67
2023/12/25 06:33:29;;;;;;;8.48;0.70;;;10.70;99.90;;;;;;5101148;28;20032;-67
2023/12/25 06:35:55;;;;;;;8.63;1.00;;;10.60;99.90;;;;;;5104264;28;20077;-67
2023/12/25 06:38:20;;;;;;;7.68;1.70;;;10.60;99.90;;;;;;5104503;28;20486;-67
2023/12/25 06:40:46;;;;;;;6.65;1.00;;;10.60;99.90;;;;;;5106903;28;20076;-67
2023/12/25 06:43:12;;;;;;;9.90;1.73;;;10.50;99.90;;;;;;5088429;28;20255;-67
2023/12/25 06:45:37;;;;;;;7.97;1.08;;;10.50;99.90;;;;;;5109006;27;20031;-67
2023/12/25 06:48:03;;;;;;;7.50;1.10;;;10.40;99.90;;;;;;5091332;28;20101;-67
2023/12/25 06:50:29;;;;;;;8.88;1.27;;;10.40;99.90;;;;;;5091388;28;20070;-67
2023/12/25 06:52:54;;;;;;;9.93;0.90;;;10.40;99.90;;;;;;5137988;27;20469;-67
2023/12/25 06:55:20;;;;;;;8.60;0.90;;;10.40;99.90;;;;;;5106822;27;20527;-67
2023/12/25 06:57:45;;;;;;;7.72;1.13;;;10.30;99.90;;;;;;5106465;27;20036;-67
2023/12/25 07:00:11;;;;;;;4.03;0.70;;;10.30;99.90;;;;;;5105175;28;20063;-67
2023/12/25 07:02:38;;;;;;;5.97;1.08;;;10.30;99.90;;;;;;5121292;27;20482;-67
2023/12/25 07:05:07;;;;;;;8.43;1.52;;;10.30;99.90;;;;;;5106678;27;20063;-67
2023/12/25 07:07:32;;;;;;;9.15;1.10;;;10.30;99.90;;;;;;5106089;28;20405;-67
2023/12/25 07:09:58;;;;;;;7.57;1.15;;;10.30;99.90;;;;;;5106561;28;20047;-67
2023/12/25 07:12:23;;;;;;;10.38;0.93;;;10.30;99.90;;;;;;5106030;28;20100;-67
2023/12/25 07:14:52;;;;;;;9.32;1.42;;;10.20;99.90;;;;;;5105533;27;20209;-67
2023/12/25 07:17:18;;;;;;;7.85;0.90;;;10.30;99.90;;;;;;5105827;28;20047;-67
2023/12/25 07:19:44;;;;;;;8.27;1.67;;;10.20;99.90;;;;;;5136144;27;20047;-67
2023/12/25 07:22:11;;;;;;;8.77;1.50;;;10.20;99.90;;;;;;5105904;28;20290;-67
2023/12/25 07:24:37;;;;;;;11.68;1.42;;;10.20;99.90;;;;;;5106833;27;20047;-67
2023/12/25 07:27:05;;;;;;;6.50;1.35;;;10.10;99.90;;;;;;5105700;28;20049;-67
2023/12/25 07:29:33;;;;;;;7.18;1.60;;;10.20;99.90;;;;;;5107721;27;20516;-67
2023/12/25 07:31:58;;;;;;;7.68;1.10;;;10.10;99.90;;;;;;5103509;27;20058;-67
2023/12/25 07:34:24;;;;;;;8.30;1.60;;;10.20;99.90;;;;;;5104911;27;20035;-67
2023/12/25 07:36:50;;;;;;;7.53;1.25;;;10.10;99.90;;;;;;5106183;28;20035;-67
2023/12/25 07:39:16;;;;;;;6.40;1.33;;;10.10;99.90;;;;;;5136775;27;20091;-67
2023/12/25 07:41:45;;;;;;;9.18;1.15;;;10.10;99.90;;;;;;5104462;28;20034;-67
2023/12/25 07:44:15;;;;;;;6.20;1.50;;;10.10;99.90;;;;;;5104530;27;20051;-67
2023/12/25 07:46:42;;;;;;;7.13;0.88;;;10.00;99.90;;;;;;5133183;27;20047;-67
2023/12/25 07:49:07;;;;;;;9.82;1.80;;;10.50;99.90;;;;;;5136680;27;20054;-67
2023/12/25 07:51:33;;;;;;;5.88;1.10;;;10.00;99.90;;;;;;5098920;27;20501;-67
2023/12/25 07:53:58;;;;;;;6.07;1.05;;;10.20;99.90;;;;;;5118374;27;20149;-67
2023/12/25 07:56:25;;;;;;;7.78;1.35;;;10.00;99.90;;;;;;5106322;28;20039;-67
2023/12/25 07:58:50;;;;;;;6.38;0.77;;;10.00;99.90;;;;;;5084419;28;20068;-67
2023/12/25 08:01:19;;;;;;;9.00;1.00;;;10.00;99.90;;;;;;5134459;27;20092;-67
2023/12/25 08:03:44;;;;;;;10.75;2.58;;;10.00;99.90;;;;;;5102568;27;20092;-67
2023/12/25 08:06:10;;;;;;;9.73;1.50;;;10.00;99.90;;;;;;5103135;27;20032;-67
2023/12/25 08:08:36;;;;;;;7.18;1.08;;;10.00;99.90;;;;;;5101885;27;20054;-67
2023/12/25 08:11:02;;;;;;;8.68;1.25;;;10.00;99.90;;;;;;5102671;28;20044;-67
2023/12/25 08:13:28;;;;;;;9.20;1.00;;;10.00;99.90;;;;;;5105448;27;20553;-67
2023/12/25 08:15:54;;;;;;;7.57;1.50;;;10.00;99.90;;;;;;5104185;28;20039;-67
2023/12/25 08:18:19;;;;;;;9.63;1.38;;;10.00;99.90;;;;;;5103199;27;20389;-67
2023/12/25 08:20:45;;;;;;;12.55;1.25;;;9.90;99.90;;;;;;5103060;27;20039;-67
2023/12/25 08:23:10;;;;;;;11.07;2.35;;;9.90;99.90;;;;;;5104402;27;20059;-67
2023/12/25 08:25:37;;;;;;;7.82;1.42;;;9.90;99.90;;;;;;5106768;28;20544;-67
2023/12/25 08:28:03;;;;;;;8.75;1.25;;;9.90;99.90;;;;;;5103500;27;20051;-67
2023/12/25 08:30:29;;;;;;;5.97;1.02;;;10.00;99.90;;;;;;5105455;27;20040;-67
2023/12/25 08:32:54;;;;;;;12.35;1.90;;;9.90;99.90;;;;;;5102405;27;20123;-67
2023/12/25 08:35:20;;;;;;;10.63;1.27;;;10.00;99.90;;;;;;5099030;28;20071;-67
2023/12/25 08:37:45;;;;;;;9.35;1.13;;;10.00;99.90;;;;;;5129740;27;20500;-67
2023/12/25 08:40:11;;;;;;;10.68;1.48;;;9.90;99.90;;;;;;5101925;27;20047;-67
2023/12/25 08:42:36;;;;;;;8.30;1.60;;;10.00;99.90;;;;;;5129117;27;20039;-67
2023/12/25 08:45:04;;;;;;;7.32;1.17;;;9.90;99.90;;;;;;5130669;27;20100;-67
2023/12/25 08:47:30;;;;;;;10.60;0.98;;;10.00;99.90;;;;;;5100999;28;20366;-67
2023/12/25 08:49:55;;;;;;;9.60;1.67;;;9.90;99.90;;;;;;5112117;27;20040;-67
2023/12/25 08:52:21;;;;;;;11.15;1.45;;;9.90;99.90;;;;;;5100208;28;20103;-67
2023/12/25 08:54:48;;;;;;;9.35;1.17;;;10.00;99.90;;;;;;5095855;27;20427;-67
2023/12/25 08:57:13;;;;;;;9.82;1.88;;;10.00;99.90;;;;;;5092254;28;20054;-67
2023/12/25 08:59:39;;;;;;;7.38;1.40;;;9.90;99.90;;;;;;5101585;27;20039;-67
2023/12/25 09:02:05;;;;;;;6.55;1.63;;;10.00;99.90;;;;;;5091527;27;20031;-67
2023/12/25 09:04:30;;;;;;;6.20;1.50;;;9.90;99.90;;;;;;5131678;27;20054;-67
2023/12/25 09:06:56;;;;;;;8.43;1.05;;;10.00;99.90;;;;;;5104790;27;20319;-67
2023/12/25 09:09:23;;;;;;;11.90;1.50;;;10.00;99.90;;;;;;5104378;27;20049;-67
2023/12/25 09:11:49;;;;;;;11.75;1.67;;;10.00;99.90;;;;;;5103583;27;20077;-67
2023/12/25 09:14:15;;;;;;;10.45;1.95;;;10.10;99.90;;;;;;5105891;27;20051;-67
2023/12/25 09:16:40;;;;;;;8.25;1.48;;;10.00;99.90;;;;;;5116986;27;20040;-67
2023/12/25 09:19:07;;;;;;;8.85;1.75;;;10.00;99.90;;;;;;5101481;27;20162;-67
2023/12/25 09:21:39;;;;;;;7.35;1.58;;;10.10;99.90;;;;;;5107059;27;20138;-67
2023/12/25 09:24:05;;;;;;;8.82;1.27;;;10.10;99.90;;;;;;5107054;28;20389;-67
2023/12/25 09:26:30;;;;;;;10.10;1.58;;;10.10;99.90;;;;;;5132856;27;20039;-67
2023/12/25 09:28:56;;;;;;;5.53;1.60;;;10.10;99.90;;;;;;5104943;28;20138;-67
2023/12/25 09:31:22;;;;;;;11.05;1.10;;;10.20;99.90;;;;;;5103177;28;20047;-67
2023/12/25 09:33:47;;;;;;;7.80;1.10;;;10.10;99.90;;;;;;5098390;28;20042;-67
2023/12/25 09:36:14;;;;;;;8.75;1.83;;;10.20;99.90;;;;;;5099871;28;20031;-67
2023/12/25 09:38:40;;;;;;;8.30;1.60;;;10.20;99.90;;;;;;5131636;27;20039;-67
2023/12/25 09:41:10;;;;;;;8.90;1.40;;;10.30;99.90;;;;;;5101982;28;20039;-67
2023/12/25 09:43:39;;;;;;;7.85;1.33;;;10.30;99.90;;;;;;5108173;28;20043;-67
2023/12/25 09:46:04;;;;;;;8.43;1.40;;;10.30;99.90;;;;;;5130725;27;20397;-67
2023/12/25 09:48:31;;;;;;;10.20;1.20;;;10.30;99.90;;;;;;5098637;28;20042;-67
2023/12/25 09:50:58;;;;;;;9.68;1.67;;;10.40;99.90;;;;;;5100932;28;20032;-67
2023/12/25 09:53:23;;;;;;;8.88;1.52;;;10.40;99.90;;;;;;5099066;28;20043;-67
2023/12/25 09:55:50;;;;;;;11.07;1.38;;;10.50;99.90;;;;;;5082180;28;20040;-67
2023/12/25 09:58:17;;;;;;;7.72;1.55;;;10.50;99.90;;;;;;5104937;28;20167;-67
2023/12/25 10:00:43;;;;;;;7.68;1.38;;;10.60;99.90;;;;;;5133637;27;20043;-67
2023/12/25 10:03:09;;;;;;;9.65;1.67;;;10.60;99.90;;;;;;5107775;28;20038;-67
2023/12/25 10:05:35;;;;;;;8.32;1.48;;;10.60;99.90;;;;;;5101269;28;20051;-67
2023/12/25 10:08:00;;;;;;;7.43;1.75;;;10.60;99.90;;;;;;5106161;28;20051;-67
2023/12/25 10:10:29;;;;;;;9.20;1.40;;;10.70;99.90;;;;;;5105734;27;20134;-67
2023/12/25 10:12:58;;;;;;;9.88;1.55;;;10.70;99.90;;;;;;5093186;27;20043;-67
2023/12/25 10:15:23;;;;;;;9.90;1.77;;;10.70;99.90;;;;;;5134212;27;20056;-67
2023/12/25 10:18:02;;;;;;;10.98;2.10;;;10.80;99.90;;;;;;5111154;27;20389;-67
2023/12/25 10:20:27;;;;;;;9.15;1.48;;;10.80;99.90;;;;;;5135387;27;20100;-67
2023/12/25 10:22:53;;;;;;;10.57;1.63;;;10.80;99.90;;;;;;5131430;27;20043;-67
2023/12/25 10:25:25;;;;;;;10.95;2.28;;;10.80;99.90;;;;;;5102670;27;20552;-67
2023/12/25 10:27:50;;;;;;;9.90;2.00;;;10.80;99.90;;;;;;5106478;27;20043;-67
2023/12/25 10:30:17;;;;;;;10.63;1.95;;;10.90;99.90;;;;;;5105481;28;20395;-67
2023/12/25 10:32:43;;;;;;;5.72;1.30;;;10.90;99.90;;;;;;5118299;27;20043;-67
2023/12/25 10:35:17;;;;;;;9.90;1.27;;;10.90;99.90;;;;;;5101546;27;20395;-68
2023/12/25 10:37:45;;;;;;;12.25;2.00;;;10.80;99.90;;;;;;5105215;27;20043;-68
2023/12/25 10:40:18;;;;;;;11.50;2.35;;;10.80;99.90;;;;;;5135370;27;20048;-67
2023/12/25 10:42:49;;;;;;;12.73;1.70;;;10.70;99.90;;;;;;5102310;27;20040;-68
2023/12/25 10:45:25;;;;;;;11.77;1.70;;;10.70;99.90;;;;;;5131808;27;20047;-68
2023/12/25 10:47:53;;;;;;;9.15;1.48;;;10.70;99.90;;;;;;5105098;28;20048;-68
2023/12/25 10:50:33;;;;;;;12.02;1.58;;;10.70;99.90;;;;;;5104809;27;20043;-68
2023/12/25 10:53:00;;;;;;;12.68;2.40;;;10.70;99.90;;;;;;5107102;27;20035;-67
2023/12/25 10:55:40;;;;;;;12.25;1.92;;;10.90;99.90;;;;;;5105451;27;20031;-67
2023/12/25 10:58:08;;;;;;;7.15;1.45;;;10.60;99.90;;;;;;5135151;27;20051;-68
2023/12/25 11:00:36;;;;;;;8.27;1.88;;;10.60;99.90;;;;;;5105642;27;20039;-68
2023/12/25 11:03:04;;;;;;;5.93;1.45;;;10.60;99.90;;;;;;5102809;27;20193;-68
2023/12/25 11:05:31;;;;;;;7.85;1.35;;;10.60;99.90;;;;;;5102931;27;20043;-68
2023/12/25 11:07:58;;;;;;;8.65;1.55;;;10.60;99.90;;;;;;5103841;27;20067;-68
2023/12/25 11:10:25;;;;;;;11.20;1.80;;;10.60;99.90;;;;;;5088712;28;20036;-67
2023/12/25 11:12:51;;;;;;;7.68;1.23;;;10.50;99.90;;;;;;5099584;28;20059;-67
2023/12/25 11:15:17;;;;;;;11.57;1.58;;;10.50;99.90;;;;;;5103347;28;20035;-68
2023/12/25 11:17:43;;;;;;;8.02;1.08;;;10.50;99.90;;;;;;5103226;28;20069;-68
2023/12/25 11:20:12;;;;;;;8.55;1.63;;;10.40;99.90;;;;;;5137849;27;20428;-67
2023/12/25 11:22:44;;;;;;;7.28;1.40;;;10.50;99.90;;;;;;5104979;27;20036;-68
2023/12/25 11:25:21;;;;;;;6.82;1.13;;;10.50;99.90;;;;;;5117192;27;20043;-67
2023/12/25 11:27:52;;;;;;;9.20;1.02;;;10.50;99.90;;;;;;5102457;27;20573;-67
2023/12/25 11:30:20;;;;;;;10.60;1.77;;;10.50;99.90;;;;;;5120646;27;20484;-67
2023/12/25 11:32:49;;;;;;;16.83;2.00;;;10.50;99.90;;;;;;5103512;28;20062;-67
2023/12/25 11:35:15;;;;;;;5.18;1.15;;;10.50;99.90;;;;;;5105025;28;20047;-67
2023/12/25 11:37:41;;;;;;;10.00;1.23;;;10.50;99.90;;;;;;5104589;28;20027;-67
2023/12/25 11:40:08;;;;;;;10.68;1.88;;;10.50;99.90;;;;;;5104529;28;20089;-67
2023/12/25 11:42:35;;;;;;;6.22;1.73;;;10.60;99.90;;;;;;5102992;28;20067;-67
2023/12/25 11:45:04;;;;;;;8.45;1.30;;;10.60;99.90;;;;;;5100322;28;20039;-67
2023/12/25 11:47:44;;;;;;;10.93;1.77;;;10.60;99.90;;;;;;5102338;27;20067;-67
2023/12/25 11:50:12;;;;;;;10.43;2.08;;;10.70;99.90;;;;;;5101143;28;20036;-68
2023/12/25 11:52:55;;;;;;;9.77;1.30;;;10.60;99.90;;;;;;5100891;27;20050;-68
2023/12/25 11:55:25;;;;;;;9.30;1.50;;;10.80;99.90;;;;;;5088391;28;20047;-67
2023/12/25 11:57:51;;;;;;;5.85;0.90;;;10.80;99.90;;;;;;5104508;28;20120;-67
2023/12/25 12:00:21;;;;;;;9.02;1.50;;;10.80;99.90;;;;;;5104089;27;20035;-67
2023/12/25 12:02:47;;;;;;;14.00;2.28;;;10.90;99.90;;;;;;5103272;28;20158;-67
2023/12/25 12:05:15;;;;;;;7.57;1.48;;;10.90;99.90;;;;;;5118509;27;20039;-68
2023/12/25 12:07:41;;;;;;;8.05;1.60;;;10.80;99.90;;;;;;5100806;27;20032;-68
2023/12/25 12:10:07;;;;;;;5.85;1.08;;;10.80;99.90;;;;;;5101276;27;20051;-67
2023/12/25 12:12:33;;;;;;;11.73;1.73;;;10.80;99.90;;;;;;5135060;27;20031;-67
2023/12/25 12:15:00;;;;;;;9.60;1.40;;;10.90;99.90;;;;;;5104087;28;20470;-68
2023/12/25 12:17:26;;;;;;;11.38;3.03;;;10.80;99.90;;;;;;5105819;27;20492;-67
2023/12/25 12:19:52;;;;;;;10.10;1.58;;;10.90;99.90;;;;;;5104244;27;20059;-68
2023/12/25 12:22:19;;;;;;;8.13;1.30;;;10.80;99.90;;;;;;5107154;27;20031;-68
2023/12/25 12:24:44;;;;;;;8.68;1.85;;;10.90;99.90;;;;;;5106478;27;20039;-67
2023/12/25 12:27:11;;;;;;;12.02;2.00;;;10.90;99.90;;;;;;5106452;27;20057;-68
2023/12/25 12:29:38;;;;;;;16.42;2.03;;;10.90;99.90;;;;;;5106248;27;20096;-67
2023/12/25 12:32:06;;;;;;;11.35;1.25;;;10.90;99.90;;;;;;5103053;28;20755;-67
2023/12/25 12:34:31;;;;;;;5.88;1.48;;;10.90;99.90;;;;;;5100919;28;20031;-68
2023/12/25 12:37:03;;;;;;;7.10;1.02;;;10.90;99.90;;;;;;5106100;27;20424;-68
2023/12/25 12:39:30;;;;;;;8.93;1.42;;;10.90;99.90;;;;;;5104373;28;20035;-67
2023/12/25 12:41:56;;;;;;;8.32;1.52;;;10.90;99.90;;;;;;5101369;28;20046;-66